Opp, AL

4:51 AM CDT on November 01, 2014 (GMT -0500)
Florala | Change Station
CLOSE
Current Station
Airport
Location: Florala,
Elevation: 315 ft
Nearby Weather Stations

Elev 315 ft 31.04 °N, 86.31 °W | Updated 53 minutes ago

Clear
Clear
42 °F
Feels Like 38 °F
N
6
Wind Variable Wind from Variable

Today
High -- | Low -- °F
--% Chance of Precip.
Yesterday
High -- | Low -- °F
Precip. -- in
7:00 AM 5:56 PM
Waxing Gibbous, 65% visible
Pressure 30.16 in
Visibility 10.0 miles
Clouds Clear
Windchill 38 °F
Dew Point 23 °F
Humidity 47%
Rainfall 0.00 in
Snow Depth Not available.
UV 0 out of 12
Pollen 2.00 out of 12
Air Quality Not available.
Flu Activity Not available.
METAR K0J4 010858Z AUTO VRB05KT 10SM CLR 06/M05 A3016 RMK AO2 SLP212 T00561050 51021 $

More Conditions Fewer Conditions

Pressure 30.16 in
Visibility 10.0 miles
Clouds Clear
Windchill 38 °F
Dew Point 23 °F
Humidity 47%
Rainfall 0.00 in
Snow Depth Not available.
UV 0 out of 12
Pollen 2.00 out of 12
Air Quality Not available.
Flu Activity Not available.
METAR K0J4 010858Z AUTO VRB05KT 10SM CLR 06/M05 A3016 RMK AO2 SLP212 T00561050 51021 $

More Conditions Fewer Conditions

10-Day Weather Forecast

Almanac

Astronomy

Nov. 01, 2014 Rise Set
Actual Time
Civil Twilight
Nautical Twilight
Astronomical Twilight
Moon
Length of Visible Light
Length of Day
Tomorrow will be .
, % of the Moon is Illuminated

Today's Extremes

State Highs State Lows

Community

WunderPhotos

Upload Photos

1,766,872 photos uploaded!

WunderBlogs® & News

Nearby

Air Quality

  Air Quality AQ Index Pollutant
Not available.

Snow Depth

Station Depth Elevation

Earthquake Activity

City Distance Mag. Time & Date
Minimum magnitude displayed is 2.5.

Coastal Water Temperatures

Place Temperature

Nearby Weather Stations